Time;durP1;ratioP1;P1;durP2;ratioP2;P2;SDS_P1;SDS_P2;PMS_P1;PMS_P2;Temp;Humidity;BMP_temperature;BMP_pressure;BME280_temperature;BME280_humidity;BME280_pressure;Samples;Min_cycle;Max_cycle;Signal;HPM_P1;HPM_P2
2023/02/22 00:02:09;;;;;;;7.07;3.50;;;;;;;;;;10434332;28;20049;-76
2023/02/22 00:07:13;;;;;;;12.02;3.30;;;;;;;;;;10403381;28;20041;-76
2023/02/22 00:12:17;;;;;;;12.25;3.65;;;;;;;;;;10421190;28;20042;-77
2023/02/22 00:17:20;;;;;;;9.02;4.00;;;;;;;;;;10403556;28;20052;-77
2023/02/22 00:22:24;;;;;;;7.80;3.72;;;;;;;;;;10403403;28;20045;-76
2023/02/22 00:27:27;;;;;;;8.77;3.55;;;;;;;;;;10406401;28;20064;-75
2023/02/22 00:32:30;;;;;;;9.57;3.83;;;;;;;;;;10400870;28;20101;-76
2023/02/22 00:37:35;;;;;;;8.23;3.38;;;;;;;;;;10405037;28;20044;-76
2023/02/22 00:42:38;;;;;;;7.15;3.33;;;;;;;;;;10403927;28;20118;-75
2023/02/22 00:47:42;;;;;;;13.20;3.55;;;;;;;;;;10400699;28;20064;-76
2023/02/22 00:52:47;;;;;;;7.28;3.05;;;;;;;;;;10404219;28;20103;-77
2023/02/22 00:57:50;;;;;;;7.53;3.03;;;;;;;;;;10403707;28;20042;-78
2023/02/22 01:02:53;;;;;;;8.80;3.10;;;;;;;;;;10403057;28;20042;-77
2023/02/22 01:07:58;;;;;;;6.68;3.00;;;;;;;;;;10404903;28;20445;-77
2023/02/22 01:13:07;;;;;;;8.73;3.35;;;;;;;;;;10409542;28;20131;-78
2023/02/22 01:18:11;;;;;;;7.03;3.28;;;;;;;;;;10397938;28;20042;-76
2023/02/22 01:23:16;;;;;;;7.45;3.35;;;;;;;;;;10407663;28;20143;-76
2023/02/22 01:28:18;;;;;;;;;;;;;;;;;;10400228;28;20040;-76
2023/02/22 01:33:21;;;;;;;7.57;2.65;;;;;;;;;;10402954;28;19966;-75
2023/02/22 01:38:26;;;;;;;7.50;3.28;;;;;;;;;;10405587;28;20037;-75
2023/02/22 01:43:30;;;;;;;8.38;2.75;;;;;;;;;;10400982;28;20072;-76
2023/02/22 01:48:33;;;;;;;;;;;;;;;;;;10405212;28;20045;-77
2023/02/22 01:53:39;;;;;;;6.60;2.85;;;;;;;;;;10401920;28;19921;-76
2023/02/22 01:58:44;;;;;;;3.55;2.30;;;;;;;;;;10406383;28;20056;-76
2023/02/22 02:03:48;;;;;;;2.67;1.50;;;;;;;;;;10437775;28;20045;-77
2023/02/22 02:08:59;;;;;;;6.63;2.33;;;;;;;;;;10398008;28;20045;-77
2023/02/22 02:14:02;;;;;;;2.42;1.58;;;;;;;;;;10402122;28;20041;-77
2023/02/22 02:19:07;;;;;;;3.83;2.28;;;;;;;;;;10397961;28;20049;-77
2023/02/22 02:24:29;;;;;;;2.83;1.60;;;;;;;;;;10403125;28;20037;-76
2023/02/22 02:29:53;;;;;;;1.52;1.17;;;;;;;;;;10398957;28;20055;-76
2023/02/22 02:35:00;;;;;;;3.33;1.55;;;;;;;;;;10402279;28;20538;-76
2023/02/22 02:40:10;;;;;;;5.70;1.85;;;;;;;;;;10411666;28;20125;-77
2023/02/22 02:45:15;;;;;;;6.35;2.40;;;;;;;;;;10402494;28;20033;-77
2023/02/22 02:50:21;;;;;;;2.65;1.17;;;;;;;;;;10400666;28;20380;-77
2023/02/22 02:55:24;;;;;;;3.67;1.65;;;;;;;;;;10401545;28;20079;-74
2023/02/22 03:00:28;;;;;;;2.92;1.27;;;;;;;;;;10411379;28;20053;-75
2023/02/22 03:05:39;;;;;;;1.15;1.05;;;;;;;;;;10398573;28;20037;-75
2023/02/22 03:10:45;;;;;;;2.33;1.52;;;;;;;;;;10399781;28;20053;-74
2023/02/22 03:15:51;;;;;;;1.70;1.35;;;;;;;;;;10399794;28;20041;-75
2023/02/22 03:20:58;;;;;;;2.42;1.77;;;;;;;;;;10399998;28;20809;-75
2023/02/22 03:26:03;;;;;;;3.35;1.98;;;;;;;;;;10402889;28;20112;-76
2023/02/22 03:31:09;;;;;;;7.45;2.63;;;;;;;;;;10397987;28;20046;-76
2023/02/22 03:36:16;;;;;;;4.35;2.40;;;;;;;;;;10403110;28;20487;-75
2023/02/22 03:41:22;;;;;;;5.40;1.73;;;;;;;;;;10401330;28;20080;-76
2023/02/22 03:46:28;;;;;;;5.65;2.08;;;;;;;;;;10401905;28;20044;-75
2023/02/22 03:51:32;;;;;;;4.05;1.73;;;;;;;;;;10401339;28;20045;-75
2023/02/22 03:56:39;;;;;;;5.22;2.60;;;;;;;;;;10400255;28;20061;-75
2023/02/22 04:01:42;;;;;;;3.55;1.60;;;;;;;;;;10400030;28;20527;-76
2023/02/22 04:06:46;;;;;;;8.13;2.13;;;;;;;;;;10403352;28;20049;-76
2023/02/22 04:11:49;;;;;;;;;;;;;;;;;;10403521;28;20087;-77
2023/02/22 04:16:52;;;;;;;3.60;1.92;;;;;;;;;;10406043;28;19920;-77
2023/02/22 04:21:56;;;;;;;4.22;1.98;;;;;;;;;;10407376;28;20053;-75
2023/02/22 04:26:59;;;;;;;5.95;2.50;;;;;;;;;;10411530;28;20434;-75
2023/02/22 04:32:03;;;;;;;4.07;2.28;;;;;;;;;;10419984;28;20049;-76
2023/02/22 04:37:09;;;;;;;5.80;2.10;;;;;;;;;;10403515;28;20090;-75
2023/02/22 04:42:11;;;;;;;6.43;2.25;;;;;;;;;;10409154;28;20515;-76
2023/02/22 04:47:14;;;;;;;4.60;2.30;;;;;;;;;;10402167;28;20057;-75
2023/02/22 04:52:19;;;;;;;6.18;2.20;;;;;;;;;;10403973;28;20103;-75
2023/02/22 04:57:22;;;;;;;6.07;2.08;;;;;;;;;;10400751;28;20033;-75
2023/02/22 05:02:26;;;;;;;5.83;2.10;;;;;;;;;;10403180;28;20084;-76
2023/02/22 05:07:31;;;;;;;4.45;1.92;;;;;;;;;;10403267;28;20053;-75
2023/02/22 05:12:34;;;;;;;4.13;2.05;;;;;;;;;;10404854;28;20095;-77
2023/02/22 05:17:37;;;;;;;5.22;2.55;;;;;;;;;;10415903;28;20495;-76
2023/02/22 05:22:41;;;;;;;4.32;1.70;;;;;;;;;;10400502;28;20057;-75
2023/02/22 05:27:43;;;;;;;3.35;1.83;;;;;;;;;;10404759;28;20233;-75
2023/02/22 05:32:46;;;;;;;4.53;2.00;;;;;;;;;;10401636;28;20456;-77
2023/02/22 05:37:51;;;;;;;5.95;2.17;;;;;;;;;;10404802;28;20137;-76
2023/02/22 05:42:55;;;;;;;2.83;1.55;;;;;;;;;;10398761;28;20045;-75
2023/02/22 05:47:58;;;;;;;2.35;1.35;;;;;;;;;;10400975;28;20128;-76
2023/02/22 05:53:02;;;;;;;4.25;1.95;;;;;;;;;;10403856;28;20039;-75
2023/02/22 05:58:04;;;;;;;6.25;2.80;;;;;;;;;;10400460;28;20041;-76
2023/02/22 06:03:09;;;;;;;6.38;2.85;;;;;;;;;;10400452;28;20518;-76
2023/02/22 06:08:13;;;;;;;8.07;2.92;;;;;;;;;;10401077;28;20037;-75
2023/02/22 06:13:16;;;;;;;5.13;2.63;;;;;;;;;;10402975;28;20041;-75
2023/02/22 06:18:19;;;;;;;6.40;2.72;;;;;;;;;;10399087;28;20814;-76
2023/02/22 06:23:23;;;;;;;2.07;1.50;;;;;;;;;;10401835;28;20069;-75
2023/02/22 06:28:26;;;;;;;4.18;2.63;;;;;;;;;;10401313;28;20087;-76
2023/02/22 06:33:28;;;;;;;5.35;2.35;;;;;;;;;;10402738;28;20045;-77
2023/02/22 06:38:34;;;;;;;8.02;2.50;;;;;;;;;;10395314;28;20045;-76
2023/02/22 06:43:36;;;;;;;6.75;2.95;;;;;;;;;;10402142;28;20491;-77
2023/02/22 06:48:40;;;;;;;5.10;2.22;;;;;;;;;;10399100;28;20032;-77
2023/02/22 06:53:44;;;;;;;6.68;3.05;;;;;;;;;;10400352;28;20053;-77
2023/02/22 06:58:48;;;;;;;5.90;1.92;;;;;;;;;;10400637;28;20039;-74
2023/02/22 07:04:00;;;;;;;7.23;2.03;;;;;;;;;;10394056;28;20487;-75
2023/02/22 07:09:04;;;;;;;3.85;1.55;;;;;;;;;;10398837;28;20041;-76
2023/02/22 07:14:07;;;;;;;7.90;2.90;;;;;;;;;;10398878;28;20412;-76
2023/02/22 07:19:10;;;;;;;5.97;2.92;;;;;;;;;;10397672;28;20053;-76
2023/02/22 07:24:14;;;;;;;7.03;2.90;;;;;;;;;;10395321;28;20037;-75
2023/02/22 07:29:21;;;;;;;3.70;2.05;;;;;;;;;;10395361;28;20030;-75
2023/02/22 07:34:23;;;;;;;6.45;1.70;;;;;;;;;;10386508;28;20049;-76
2023/02/22 07:39:28;;;;;;;6.18;2.50;;;;;;;;;;10384416;28;20053;-76
2023/02/22 07:44:31;;;;;;;6.20;2.33;;;;;;;;;;10394362;28;20047;-78
2023/02/22 07:49:33;;;;;;;12.00;3.20;;;;;;;;;;10411395;28;20045;-77
2023/02/22 07:54:38;;;;;;;5.97;3.03;;;;;;;;;;10411882;28;20175;-78
2023/02/22 07:59:40;;;;;;;13.20;3.40;;;;;;;;;;10407234;28;20407;-78
2023/02/22 08:04:43;;;;;;;7.90;2.83;;;;;;;;;;10396321;28;20079;-78
2023/02/22 08:09:47;;;;;;;7.18;3.20;;;;;;;;;;10405133;28;20048;-78
2023/02/22 08:14:49;;;;;;;9.80;3.50;;;;;;;;;;10403859;28;20741;-78
2023/02/22 08:19:53;;;;;;;5.72;3.00;;;;;;;;;;10402683;28;20042;-78
2023/02/22 08:24:57;;;;;;;9.60;3.42;;;;;;;;;;10403482;28;20092;-78
2023/02/22 08:29:59;;;;;;;4.65;3.03;;;;;;;;;;10405025;28;20894;-78
2023/02/22 08:35:02;;;;;;;4.75;2.50;;;;;;;;;;10402577;28;20123;-78
2023/02/22 08:40:07;;;;;;;5.85;2.30;;;;;;;;;;10409893;28;20156;-78
2023/02/22 08:45:10;;;;;;;8.27;3.40;;;;;;;;;;10401199;28;20042;-78
2023/02/22 08:50:18;;;;;;;3.83;2.58;;;;;;;;;;10405845;28;20057;-78
2023/02/22 08:55:33;;;;;;;6.65;2.47;;;;;;;;;;10406201;28;20077;-78
2023/02/22 09:00:46;;;;;;;7.75;3.08;;;;;;;;;;10405986;28;20040;-78
2023/02/22 09:05:58;;;;;;;7.75;3.25;;;;;;;;;;10400739;28;20034;-79
2023/02/22 09:11:21;;;;;;;6.05;2.33;;;;;;;;;;10411472;28;20054;-79
2023/02/22 09:16:23;;;;;;;5.45;2.63;;;;;;;;;;10409940;28;20037;-79
2023/02/22 09:21:28;;;;;;;6.25;2.63;;;;;;;;;;10405844;28;20465;-80
2023/02/22 09:26:33;;;;;;;5.40;2.95;;;;;;;;;;10404448;28;20073;-79
2023/02/22 09:31:35;;;;;;;4.53;2.67;;;;;;;;;;10397517;28;20079;-79
2023/02/22 09:36:38;;;;;;;5.13;2.42;;;;;;;;;;10395951;28;20202;-78
2023/02/22 09:41:47;;;;;;;4.10;2.30;;;;;;;;;;10398813;28;20065;-79
2023/02/22 09:46:53;;;;;;;4.63;2.50;;;;;;;;;;10398716;28;20029;-79
2023/02/22 09:51:59;;;;;;;6.35;2.40;;;;;;;;;;10413915;28;20428;-79
2023/02/22 09:57:07;;;;;;;5.22;2.00;;;;;;;;;;10399032;28;20708;-80
2023/02/22 10:02:18;;;;;;;4.80;2.38;;;;;;;;;;10400294;28;20413;-79
2023/02/22 10:07:25;;;;;;;3.58;2.25;;;;;;;;;;10416733;28;20155;-80
2023/02/22 10:12:34;;;;;;;5.45;2.47;;;;;;;;;;10402459;28;20588;-79
2023/02/22 10:17:40;;;;;;;5.15;2.35;;;;;;;;;;10397525;28;20449;-80
2023/02/22 10:22:48;;;;;;;3.50;2.28;;;;;;;;;;10402419;28;20045;-79
2023/02/22 10:27:56;;;;;;;6.15;2.63;;;;;;;;;;10399790;28;20091;-80
2023/02/22 10:33:04;;;;;;;3.72;2.20;;;;;;;;;;10399247;28;20044;-80
2023/02/22 10:38:13;;;;;;;4.45;2.40;;;;;;;;;;10399003;28;20045;-80
2023/02/22 10:43:18;;;;;;;3.97;2.30;;;;;;;;;;10396239;28;20041;-77
2023/02/22 10:48:22;;;;;;;3.42;2.03;;;;;;;;;;10396201;28;20037;-77
2023/02/22 10:53:26;;;;;;;5.90;1.95;;;;;;;;;;10403864;28;20045;-77
2023/02/22 10:58:39;;;;;;;7.35;2.25;;;;;;;;;;10397828;28;20034;-79
2023/02/22 11:03:44;;;;;;;4.18;1.80;;;;;;;;;;10402517;28;20049;-80
2023/02/22 11:08:50;;;;;;;2.85;1.60;;;;;;;;;;10400782;28;20414;-79
2023/02/22 11:13:55;;;;;;;3.17;1.90;;;;;;;;;;10395396;28;20041;-79
2023/02/22 11:19:00;;;;;;;4.00;2.30;;;;;;;;;;10396007;28;20069;-80
2023/02/22 11:24:07;;;;;;;2.20;1.83;;;;;;;;;;10396967;28;20272;-80
2023/02/22 11:29:14;;;;;;;1.80;1.50;;;;;;;;;;10413218;28;20033;-81
2023/02/22 11:34:29;;;;;;;2.33;1.40;;;;;;;;;;10404825;28;20048;-79
2023/02/22 11:39:33;;;;;;;1.63;1.52;;;;;;;;;;10402305;28;20081;-78
2023/02/22 11:44:38;;;;;;;2.20;1.30;;;;;;;;;;10403580;28;20072;-78
2023/02/22 11:49:44;;;;;;;4.75;1.85;;;;;;;;;;10397341;28;20038;-79
2023/02/22 11:55:05;;;;;;;3.45;1.50;;;;;;;;;;10408502;28;20061;-78
2023/02/22 12:00:15;;;;;;;3.78;1.80;;;;;;;;;;10412995;28;20105;-78
2023/02/22 12:05:27;;;;;;;4.63;2.00;;;;;;;;;;10406627;28;20128;-78
2023/02/22 12:10:40;;;;;;;4.50;2.10;;;;;;;;;;10400969;28;20106;-78
2023/02/22 12:15:48;;;;;;;2.45;1.50;;;;;;;;;;10400985;28;20478;-78
2023/02/22 12:20:52;;;;;;;7.95;2.58;;;;;;;;;;10395545;28;20040;-78
2023/02/22 12:26:00;;;;;;;4.25;1.75;;;;;;;;;;10396240;28;20041;-78
2023/02/22 12:31:14;;;;;;;3.70;1.77;;;;;;;;;;10396987;28;20128;-78
2023/02/22 12:36:20;;;;;;;1.50;1.40;;;;;;;;;;10405133;28;20099;-79
2023/02/22 12:41:26;;;;;;;2.70;1.75;;;;;;;;;;10399139;28;20452;-78
2023/02/22 12:46:35;;;;;;;3.33;1.80;;;;;;;;;;10400982;28;20041;-77
2023/02/22 12:51:41;;;;;;;5.43;2.25;;;;;;;;;;10398732;28;20061;-77
2023/02/22 12:56:48;;;;;;;2.03;0.80;;;;;;;;;;10402483;28;20077;-78
2023/02/22 13:01:57;;;;;;;2.20;0.90;;;;;;;;;;10405078;28;20049;-78
2023/02/22 13:07:06;;;;;;;4.65;1.20;;;;;;;;;;10403729;28;20231;-78
2023/02/22 13:12:13;;;;;;;2.33;0.60;;;;;;;;;;10418419;28;20048;-78
2023/02/22 13:17:25;;;;;;;3.60;0.50;;;;;;;;;;10400086;28;20115;-78
2023/02/22 13:22:37;;;;;;;0.95;0.90;;;;;;;;;;10400247;28;20037;-78
2023/02/22 13:27:42;;;;;;;1.25;0.80;;;;;;;;;;10395960;28;20037;-77
2023/02/22 13:32:52;;;;;;;3.42;0.73;;;;;;;;;;10400278;28;20042;-77
2023/02/22 13:38:19;;;;;;;1.45;0.70;;;;;;;;;;10408466;28;20057;-76
2023/02/22 13:43:34;;;;;;;1.05;0.80;;;;;;;;;;10398593;28;20088;-78
2023/02/22 13:48:48;;;;;;;1.40;0.90;;;;;;;;;;10401119;28;20068;-77
2023/02/22 13:53:54;;;;;;;2.92;1.10;;;;;;;;;;10403670;28;20164;-82
2023/02/22 13:58:58;;;;;;;1.00;1.00;;;;;;;;;;10408626;28;20044;-78
2023/02/22 14:09:44;;;;;;;1.35;1.25;;;;;;;;;;10582661;27;20433;-79
2023/02/22 14:15:03;;;;;;;1.98;1.10;;;;;;;;;;10543103;28;20158;-78
2023/02/22 14:20:19;;;;;;;2.03;0.80;;;;;;;;;;10556237;28;20090;-80
2023/02/22 14:25:35;;;;;;;0.70;0.70;;;;;;;;;;10557649;28;20039;-79
2023/02/22 14:30:38;;;;;;;1.20;0.57;;;;;;;;;;10558454;28;20040;-78
2023/02/22 14:35:42;;;;;;;1.42;0.80;;;;;;;;;;10558114;28;20086;-78
2023/02/22 14:40:55;;;;;;;0.65;0.63;;;;;;;;;;10558456;28;20039;-78
2023/02/22 14:46:03;;;;;;;1.90;0.70;;;;;;;;;;10554343;28;20028;-78
2023/02/22 14:51:12;;;;;;;0.63;0.40;;;;;;;;;;10552077;28;20047;-77
2023/02/22 14:56:28;;;;;;;2.25;0.40;;;;;;;;;;10552997;28;20381;-77
2023/02/22 15:01:32;;;;;;;1.00;0.52;;;;;;;;;;10544611;28;20044;-77
2023/02/22 15:06:57;;;;;;;2.22;0.90;;;;;;;;;;10553001;28;20040;-77
2023/02/22 15:12:12;;;;;;;1.88;0.90;;;;;;;;;;10546029;28;20488;-78
2023/02/22 15:17:19;;;;;;;5.22;2.72;;;;;;;;;;10539253;28;20040;-78
2023/02/22 15:22:23;;;;;;;6.72;2.97;;;;;;;;;;10514602;28;20044;-78
2023/02/22 15:27:28;;;;;;;3.63;2.00;;;;;;;;;;10517312;28;20066;-76
2023/02/22 15:32:32;;;;;;;8.02;2.40;;;;;;;;;;10518821;28;20036;-77
2023/02/22 15:37:35;;;;;;;3.53;2.10;;;;;;;;;;10517356;28;20070;-76
2023/02/22 15:42:44;;;;;;;6.38;2.10;;;;;;;;;;10524573;28;20044;-77
2023/02/22 15:47:48;;;;;;;10.20;2.60;;;;;;;;;;10521376;28;20040;-77
2023/02/22 15:52:56;;;;;;;9.38;2.28;;;;;;;;;;10524678;28;20520;-79
2023/02/22 15:58:07;;;;;;;4.35;2.28;;;;;;;;;;10524541;28;20033;-77
2023/02/22 16:03:12;;;;;;;3.88;2.17;;;;;;;;;;10527048;28;20196;-77
2023/02/22 16:08:16;;;;;;;9.35;2.60;;;;;;;;;;10512205;28;20043;-77
2023/02/22 16:13:22;;;;;;;6.95;2.65;;;;;;;;;;10524969;28;20063;-77
2023/02/22 16:18:34;;;;;;;8.15;2.55;;;;;;;;;;10518887;28;20044;-77
2023/02/22 16:23:45;;;;;;;6.38;2.40;;;;;;;;;;10500956;28;20048;-78
2023/02/22 16:28:53;;;;;;;8.83;2.97;;;;;;;;;;10512992;27;20120;-78
2023/02/22 16:33:56;;;;;;;5.18;2.30;;;;;;;;;;10513561;28;20518;-78
2023/02/22 16:38:59;;;;;;;9.55;2.92;;;;;;;;;;10511714;28;20040;-78
2023/02/22 16:44:06;;;;;;;5.73;2.60;;;;;;;;;;10509454;28;20039;-76
2023/02/22 16:49:09;;;;;;;10.73;2.70;;;;;;;;;;10510438;28;20500;-76
2023/02/22 16:54:24;;;;;;;6.38;2.70;;;;;;;;;;10508986;28;20050;-76
2023/02/22 16:59:31;;;;;;;6.65;2.70;;;;;;;;;;10503905;28;20117;-76
2023/02/22 17:04:35;;;;;;;6.90;2.90;;;;;;;;;;10515477;28;20082;-76
2023/02/22 17:09:38;;;;;;;7.60;2.63;;;;;;;;;;10522298;28;20051;-77
2023/02/22 17:14:44;;;;;;;10.27;3.07;;;;;;;;;;10514896;28;20131;-76
2023/02/22 17:19:48;;;;;;;6.32;3.05;;;;;;;;;;10520255;28;20504;-76
2023/02/22 17:24:50;;;;;;;6.20;2.90;;;;;;;;;;10513805;28;20374;-76
2023/02/22 17:29:55;;;;;;;6.13;3.50;;;;;;;;;;10552561;27;20040;-76
2023/02/22 17:34:58;;;;;;;10.55;2.97;;;;;;;;;;10534409;27;20044;-76
2023/02/22 17:40:01;;;;;;;7.75;3.03;;;;;;;;;;10556774;27;20097;-76
2023/02/22 17:45:05;;;;;;;12.68;2.92;;;;;;;;;;10546476;27;20043;-76
2023/02/22 17:50:09;;;;;;;22.38;8.90;;;;;;;;;;10562204;27;20484;-77
2023/02/22 17:55:15;;;;;;;11.52;3.80;;;;;;;;;;10604119;27;20031;-77
2023/02/22 18:00:31;;;;;;;8.38;3.45;;;;;;;;;;10593211;27;21007;-76
2023/02/22 18:05:40;;;;;;;8.23;3.67;;;;;;;;;;10587329;27;20042;-77
2023/02/22 18:10:45;;;;;;;8.95;3.05;;;;;;;;;;10612035;27;20035;-77
2023/02/22 18:15:50;;;;;;;10.07;3.25;;;;;;;;;;10577206;27;20031;-78
2023/02/22 18:20:58;;;;;;;;;;;;;;;;;;10607143;27;20118;-78
2023/02/22 18:26:03;;;;;;;8.10;3.65;;;;;;;;;;10607862;27;20038;-77
2023/02/22 18:31:19;;;;;;;10.63;3.25;;;;;;;;;;10601698;27;20038;-75
2023/02/22 18:36:23;;;;;;;9.40;3.75;;;;;;;;;;10601964;27;20036;-77
2023/02/22 18:41:27;;;;;;;19.40;3.55;;;;;;;;;;10601414;27;20031;-75
2023/02/22 18:46:31;;;;;;;12.50;4.38;;;;;;;;;;10592790;27;20027;-77
2023/02/22 18:51:34;;;;;;;13.73;4.43;;;;;;;;;;10607801;27;20043;-77
2023/02/22 18:56:39;;;;;;;9.18;4.20;;;;;;;;;;10607858;27;20297;-76
2023/02/22 19:01:47;;;;;;;17.88;5.15;;;;;;;;;;10608678;27;20043;-76
2023/02/22 19:06:51;;;;;;;16.67;4.30;;;;;;;;;;10602188;27;20044;-77
2023/02/22 19:11:53;;;;;;;10.40;4.22;;;;;;;;;;10616385;27;20534;-77
2023/02/22 19:17:00;;;;;;;11.65;4.25;;;;;;;;;;10610289;27;20293;-77
2023/02/22 19:22:13;;;;;;;12.75;4.60;;;;;;;;;;10615532;27;20039;-76
2023/02/22 19:27:18;;;;;;;15.27;4.80;;;;;;;;;;10610594;27;20059;-76
2023/02/22 19:32:23;;;;;;;16.17;5.55;;;;;;;;;;10616612;27;20561;-76
2023/02/22 19:37:26;;;;;;;19.02;6.47;;;;;;;;;;10595240;27;20035;-77
2023/02/22 19:42:29;;;;;;;21.38;6.50;;;;;;;;;;10614371;27;20039;-77
2023/02/22 19:47:33;;;;;;;20.00;7.63;;;;;;;;;;10589774;27;20031;-78
2023/02/22 19:52:37;;;;;;;8.77;4.00;;;;;;;;;;10613111;27;20046;-75
2023/02/22 19:57:41;;;;;;;20.30;6.20;;;;;;;;;;10603498;27;20408;-77
2023/02/22 20:02:45;;;;;;;16.27;6.00;;;;;;;;;;10604960;27;20462;-77
2023/02/22 20:07:47;;;;;;;;;;;;;;;;;;10609118;27;20054;-76
2023/02/22 20:12:50;;;;;;;12.63;4.68;;;;;;;;;;10605962;27;20000;-76
2023/02/22 20:17:57;;;;;;;17.80;7.20;;;;;;;;;;10605139;27;20031;-77
2023/02/22 20:23:00;;;;;;;14.23;5.68;;;;;;;;;;10612372;27;20073;-76
2023/02/22 20:28:03;;;;;;;16.73;5.75;;;;;;;;;;10607015;27;20512;-76
2023/02/22 20:33:12;;;;;;;13.15;4.22;;;;;;;;;;10609403;27;20047;-77
2023/02/22 20:38:18;;;;;;;16.25;6.53;;;;;;;;;;10606041;27;20663;-76
2023/02/22 20:43:21;;;;;;;14.68;6.25;;;;;;;;;;10582717;27;20054;-77
2023/02/22 20:48:26;;;;;;;7.38;3.75;;;;;;;;;;10607187;27;20119;-77
2023/02/22 20:53:30;;;;;;;9.43;4.45;;;;;;;;;;10609456;27;20041;-77
2023/02/22 20:58:33;;;;;;;16.63;7.30;;;;;;;;;;10601024;27;20038;-77
2023/02/22 21:03:38;;;;;;;17.83;7.57;;;;;;;;;;10605590;27;20448;-76
2023/02/22 21:08:42;;;;;;;12.27;5.68;;;;;;;;;;10604024;27;20435;-76
2023/02/22 21:13:45;;;;;;;10.13;4.15;;;;;;;;;;10603992;27;20039;-76
2023/02/22 21:18:51;;;;;;;13.90;5.18;;;;;;;;;;10605683;27;20144;-77
2023/02/22 21:23:55;;;;;;;14.13;5.60;;;;;;;;;;10603856;27;20431;-77
2023/02/22 21:29:00;;;;;;;17.13;7.10;;;;;;;;;;10605390;27;20130;-77
2023/02/22 21:34:05;;;;;;;17.35;7.70;;;;;;;;;;10608490;27;20058;-77
2023/02/22 21:39:09;;;;;;;12.25;5.75;;;;;;;;;;10601640;27;20039;-77
2023/02/22 21:44:13;;;;;;;13.40;6.20;;;;;;;;;;10606120;27;20568;-75
2023/02/22 21:49:17;;;;;;;17.40;6.30;;;;;;;;;;10581309;27;20539;-76
2023/02/22 21:54:20;;;;;;;19.25;7.53;;;;;;;;;;10606167;27;20106;-77
2023/02/22 21:59:23;;;;;;;11.70;5.35;;;;;;;;;;10605777;27;20047;-75
2023/02/22 22:04:28;;;;;;;14.07;3.95;;;;;;;;;;10613782;27;20091;-76
2023/02/22 22:09:36;;;;;;;22.23;8.18;;;;;;;;;;10597184;27;20031;-77
2023/02/22 22:14:39;;;;;;;14.10;6.35;;;;;;;;;;10606989;27;20220;-75
2023/02/22 22:19:45;;;;;;;14.80;6.35;;;;;;;;;;10609768;27;20116;-76
2023/02/22 22:24:47;;;;;;;16.35;6.50;;;;;;;;;;10608382;27;20047;-75
2023/02/22 22:29:55;;;;;;;17.20;6.83;;;;;;;;;;10597128;27;20031;-76
2023/02/22 22:35:00;;;;;;;18.55;7.55;;;;;;;;;;10619691;27;20050;-77
2023/02/22 22:40:04;;;;;;;20.45;8.25;;;;;;;;;;10617987;27;20067;-77
2023/02/22 22:45:10;;;;;;;18.27;6.68;;;;;;;;;;10615022;27;20166;-77
2023/02/22 22:50:26;;;;;;;14.98;6.47;;;;;;;;;;10624026;27;20031;-76
2023/02/22 22:55:29;;;;;;;12.02;4.90;;;;;;;;;;10609182;27;20034;-76
2023/02/22 23:00:36;;;;;;;16.83;6.63;;;;;;;;;;10622171;27;20041;-77
2023/02/22 23:05:41;;;;;;;18.95;8.48;;;;;;;;;;10632076;27;20035;-77
2023/02/22 23:10:44;;;;;;;15.98;6.28;;;;;;;;;;10631073;27;20035;-77
2023/02/22 23:15:47;;;;;;;;;;;;;;;;;;10606320;27;20047;-76
2023/02/22 23:20:54;;;;;;;15.85;6.63;;;;;;;;;;10600721;27;19974;-77
2023/02/22 23:26:01;;;;;;;21.73;7.47;;;;;;;;;;10591989;27;20047;-77
2023/02/22 23:31:05;;;;;;;16.83;7.40;;;;;;;;;;10612289;27;20034;-75
2023/02/22 23:36:11;;;;;;;10.07;5.43;;;;;;;;;;10628895;27;20035;-76
2023/02/22 23:41:15;;;;;;;19.60;8.38;;;;;;;;;;10603930;27;20035;-76
2023/02/22 23:46:19;;;;;;;25.17;9.05;;;;;;;;;;10596647;27;20076;-77
2023/02/22 23:51:24;;;;;;;22.35;9.23;;;;;;;;;;10601100;27;20447;-76
2023/02/22 23:56:27;;;;;;;18.75;6.70;;;;;;;;;;10605008;27;20039;-76
